sensor_id;sensor_type;location;lat;lon;timestamp;P1;durP1;ratioP1;P2;durP2;ratioP2
19002;SDS011;9634;51.040;13.794;2022-10-17T00:02:26;10.30;;;5.73;;
19002;SDS011;9634;51.040;13.794;2022-10-17T00:07:29;14.57;;;5.80;;
19002;SDS011;9634;51.040;13.794;2022-10-17T00:12:31;9.90;;;5.83;;
19002;SDS011;9634;51.040;13.794;2022-10-17T00:17:35;9.23;;;5.80;;
19002;SDS011;9634;51.040;13.794;2022-10-17T00:22:37;12.37;;;6.53;;
19002;SDS011;9634;51.040;13.794;2022-10-17T00:27:39;8.60;;;6.27;;
19002;SDS011;9634;51.040;13.794;2022-10-17T00:32:43;9.67;;;6.87;;
19002;SDS011;9634;51.040;13.794;2022-10-17T00:37:46;13.83;;;6.83;;
19002;SDS011;9634;51.040;13.794;2022-10-17T00:42:48;12.20;;;7.37;;
19002;SDS011;9634;51.040;13.794;2022-10-17T00:47:54;15.77;;;8.13;;
19002;SDS011;9634;51.040;13.794;2022-10-17T00:53:01;13.23;;;8.53;;
19002;SDS011;9634;51.040;13.794;2022-10-17T00:58:06;14.77;;;8.17;;
19002;SDS011;9634;51.040;13.794;2022-10-17T01:03:10;12.27;;;7.27;;
19002;SDS011;9634;51.040;13.794;2022-10-17T01:08:12;16.43;;;8.13;;
19002;SDS011;9634;51.040;13.794;2022-10-17T01:13:17;21.23;;;9.80;;
19002;SDS011;9634;51.040;13.794;2022-10-17T01:18:34;18.17;;;10.97;;
19002;SDS011;9634;51.040;13.794;2022-10-17T01:23:56;14.27;;;8.57;;
19002;SDS011;9634;51.040;13.794;2022-10-17T01:29:32;20.70;;;11.27;;
19002;SDS011;9634;51.040;13.794;2022-10-17T01:34:50;27.20;;;14.83;;
19002;SDS011;9634;51.040;13.794;2022-10-17T01:39:58;31.97;;;15.23;;
19002;SDS011;9634;51.040;13.794;2022-10-17T01:45:05;31.93;;;15.37;;
19002;SDS011;9634;51.040;13.794;2022-10-17T01:50:15;36.87;;;17.23;;
19002;SDS011;9634;51.040;13.794;2022-10-17T01:55:22;38.53;;;19.50;;
19002;SDS011;9634;51.040;13.794;2022-10-17T02:00:28;42.37;;;20.37;;
19002;SDS011;9634;51.040;13.794;2022-10-17T02:05:34;46.97;;;22.13;;
19002;SDS011;9634;51.040;13.794;2022-10-17T02:10:43;50.63;;;22.67;;
19002;SDS011;9634;51.040;13.794;2022-10-17T02:15:56;47.80;;;24.80;;
19002;SDS011;9634;51.040;13.794;2022-10-17T02:21:10;57.03;;;26.53;;
19002;SDS011;9634;51.040;13.794;2022-10-17T02:26:20;57.97;;;26.40;;
19002;SDS011;9634;51.040;13.794;2022-10-17T02:31:28;60.70;;;30.20;;
19002;SDS011;9634;51.040;13.794;2022-10-17T02:36:35;61.73;;;30.50;;
19002;SDS011;9634;51.040;13.794;2022-10-17T02:41:43;63.47;;;31.20;;
19002;SDS011;9634;51.040;13.794;2022-10-17T02:46:50;65.93;;;31.30;;
19002;SDS011;9634;51.040;13.794;2022-10-17T02:51:59;70.23;;;31.23;;
19002;SDS011;9634;51.040;13.794;2022-10-17T02:57:05;61.77;;;31.87;;
19002;SDS011;9634;51.040;13.794;2022-10-17T03:02:11;60.70;;;31.20;;
19002;SDS011;9634;51.040;13.794;2022-10-17T03:07:15;66.30;;;31.20;;
19002;SDS011;9634;51.040;13.794;2022-10-17T03:12:17;59.83;;;31.43;;
19002;SDS011;9634;51.040;13.794;2022-10-17T03:17:20;64.70;;;30.83;;
19002;SDS011;9634;51.040;13.794;2022-10-17T03:22:23;58.97;;;30.47;;
19002;SDS011;9634;51.040;13.794;2022-10-17T03:27:26;60.90;;;29.97;;
19002;SDS011;9634;51.040;13.794;2022-10-17T03:32:28;56.73;;;29.40;;
19002;SDS011;9634;51.040;13.794;2022-10-17T03:37:32;57.77;;;29.17;;
19002;SDS011;9634;51.040;13.794;2022-10-17T03:42:35;59.50;;;30.13;;
19002;SDS011;9634;51.040;13.794;2022-10-17T03:47:37;62.07;;;31.97;;
19002;SDS011;9634;51.040;13.794;2022-10-17T03:52:41;57.53;;;30.23;;
19002;SDS011;9634;51.040;13.794;2022-10-17T03:57:47;57.90;;;30.37;;
19002;SDS011;9634;51.040;13.794;2022-10-17T04:02:54;57.13;;;29.53;;
19002;SDS011;9634;51.040;13.794;2022-10-17T04:08:01;52.80;;;29.97;;
19002;SDS011;9634;51.040;13.794;2022-10-17T04:13:23;55.20;;;28.20;;
19002;SDS011;9634;51.040;13.794;2022-10-17T04:18:25;65.73;;;30.43;;
19002;SDS011;9634;51.040;13.794;2022-10-17T04:23:29;56.77;;;29.33;;
19002;SDS011;9634;51.040;13.794;2022-10-17T04:28:38;56.43;;;29.73;;
19002;SDS011;9634;51.040;13.794;2022-10-17T04:33:41;53.93;;;28.10;;
19002;SDS011;9634;51.040;13.794;2022-10-17T04:38:45;52.40;;;29.73;;
19002;SDS011;9634;51.040;13.794;2022-10-17T04:43:47;56.63;;;30.90;;
19002;SDS011;9634;51.040;13.794;2022-10-17T04:48:50;57.60;;;31.97;;
19002;SDS011;9634;51.040;13.794;2022-10-17T04:53:54;55.83;;;31.27;;
19002;SDS011;9634;51.040;13.794;2022-10-17T04:58:56;60.93;;;32.50;;
19002;SDS011;9634;51.040;13.794;2022-10-17T05:04:00;62.87;;;33.20;;
19002;SDS011;9634;51.040;13.794;2022-10-17T05:09:04;60.70;;;32.63;;
19002;SDS011;9634;51.040;13.794;2022-10-17T05:14:07;64.43;;;35.07;;
19002;SDS011;9634;51.040;13.794;2022-10-17T05:19:09;65.93;;;36.10;;
19002;SDS011;9634;51.040;13.794;2022-10-17T05:24:19;67.63;;;34.70;;
19002;SDS011;9634;51.040;13.794;2022-10-17T05:29:21;61.87;;;34.60;;
19002;SDS011;9634;51.040;13.794;2022-10-17T05:34:29;63.70;;;34.87;;
19002;SDS011;9634;51.040;13.794;2022-10-17T05:39:33;66.30;;;35.70;;
19002;SDS011;9634;51.040;13.794;2022-10-17T05:44:37;63.13;;;35.83;;
19002;SDS011;9634;51.040;13.794;2022-10-17T05:49:41;61.27;;;34.33;;
19002;SDS011;9634;51.040;13.794;2022-10-17T05:54:45;58.97;;;34.30;;
19002;SDS011;9634;51.040;13.794;2022-10-17T05:59:47;60.27;;;34.33;;
19002;SDS011;9634;51.040;13.794;2022-10-17T06:04:53;57.87;;;33.90;;
19002;SDS011;9634;51.040;13.794;2022-10-17T06:09:58;59.77;;;33.80;;
19002;SDS011;9634;51.040;13.794;2022-10-17T06:15:01;58.70;;;33.23;;
19002;SDS011;9634;51.040;13.794;2022-10-17T06:20:04;57.83;;;33.40;;
19002;SDS011;9634;51.040;13.794;2022-10-17T06:25:09;62.97;;;35.30;;
19002;SDS011;9634;51.040;13.794;2022-10-17T06:30:11;55.97;;;31.77;;
19002;SDS011;9634;51.040;13.794;2022-10-17T06:35:14;51.53;;;33.10;;
19002;SDS011;9634;51.040;13.794;2022-10-17T06:40:17;57.77;;;32.30;;
19002;SDS011;9634;51.040;13.794;2022-10-17T06:45:20;50.63;;;30.70;;
19002;SDS011;9634;51.040;13.794;2022-10-17T06:50:40;49.30;;;30.57;;
19002;SDS011;9634;51.040;13.794;2022-10-17T06:56:02;53.17;;;31.53;;
19002;SDS011;9634;51.040;13.794;2022-10-17T07:01:17;54.33;;;29.63;;
19002;SDS011;9634;51.040;13.794;2022-10-17T07:06:22;50.37;;;30.20;;
19002;SDS011;9634;51.040;13.794;2022-10-17T07:11:26;50.10;;;29.63;;
19002;SDS011;9634;51.040;13.794;2022-10-17T07:16:29;49.10;;;28.37;;
19002;SDS011;9634;51.040;13.794;2022-10-17T07:21:47;51.60;;;28.63;;
19002;SDS011;9634;51.040;13.794;2022-10-17T07:26:51;44.87;;;28.43;;
19002;SDS011;9634;51.040;13.794;2022-10-17T07:31:53;47.97;;;27.40;;
19002;SDS011;9634;51.040;13.794;2022-10-17T07:36:56;43.27;;;26.83;;
19002;SDS011;9634;51.040;13.794;2022-10-17T07:42:00;41.13;;;25.20;;
19002;SDS011;9634;51.040;13.794;2022-10-17T07:47:03;38.17;;;24.83;;
19002;SDS011;9634;51.040;13.794;2022-10-17T07:52:05;34.73;;;22.90;;
19002;SDS011;9634;51.040;13.794;2022-10-17T07:57:09;40.20;;;24.37;;
19002;SDS011;9634;51.040;13.794;2022-10-17T08:02:11;42.47;;;23.13;;
19002;SDS011;9634;51.040;13.794;2022-10-17T08:07:21;37.37;;;22.40;;
19002;SDS011;9634;51.040;13.794;2022-10-17T08:12:25;35.10;;;22.83;;
19002;SDS011;9634;51.040;13.794;2022-10-17T08:17:32;33.30;;;21.27;;
19002;SDS011;9634;51.040;13.794;2022-10-17T08:22:35;34.27;;;21.67;;
19002;SDS011;9634;51.040;13.794;2022-10-17T08:27:38;30.53;;;21.73;;
19002;SDS011;9634;51.040;13.794;2022-10-17T08:32:41;29.97;;;20.10;;
19002;SDS011;9634;51.040;13.794;2022-10-17T08:37:43;32.33;;;21.13;;
19002;SDS011;9634;51.040;13.794;2022-10-17T08:48:39;33.93;;;21.63;;
19002;SDS011;9634;51.040;13.794;2022-10-17T08:53:45;31.53;;;20.97;;
19002;SDS011;9634;51.040;13.794;2022-10-17T08:58:51;28.77;;;20.63;;
19002;SDS011;9634;51.040;13.794;2022-10-17T09:04:00;32.23;;;20.93;;
19002;SDS011;9634;51.040;13.794;2022-10-17T09:09:24;33.43;;;20.50;;
19002;SDS011;9634;51.040;13.794;2022-10-17T09:14:44;29.37;;;20.53;;
19002;SDS011;9634;51.040;13.794;2022-10-17T09:20:00;29.07;;;19.60;;
19002;SDS011;9634;51.040;13.794;2022-10-17T09:25:10;28.63;;;20.20;;
19002;SDS011;9634;51.040;13.794;2022-10-17T09:30:19;27.87;;;19.93;;
19002;SDS011;9634;51.040;13.794;2022-10-17T09:35:29;30.27;;;20.83;;
19002;SDS011;9634;51.040;13.794;2022-10-17T09:40:32;27.13;;;18.23;;
19002;SDS011;9634;51.040;13.794;2022-10-17T09:45:37;32.00;;;20.27;;
19002;SDS011;9634;51.040;13.794;2022-10-17T09:50:47;28.60;;;18.70;;
19002;SDS011;9634;51.040;13.794;2022-10-17T09:55:50;25.83;;;19.40;;
19002;SDS011;9634;51.040;13.794;2022-10-17T10:00:57;29.93;;;17.83;;
19002;SDS011;9634;51.040;13.794;2022-10-17T10:06:18;24.50;;;17.43;;
19002;SDS011;9634;51.040;13.794;2022-10-17T10:11:22;26.57;;;17.80;;
19002;SDS011;9634;51.040;13.794;2022-10-17T10:16:29;25.77;;;18.63;;
19002;SDS011;9634;51.040;13.794;2022-10-17T10:21:33;24.07;;;16.70;;
19002;SDS011;9634;51.040;13.794;2022-10-17T10:26:37;19.97;;;15.63;;
19002;SDS011;9634;51.040;13.794;2022-10-17T10:31:41;22.73;;;17.83;;
19002;SDS011;9634;51.040;13.794;2022-10-17T10:36:46;24.10;;;16.60;;
19002;SDS011;9634;51.040;13.794;2022-10-17T10:41:55;20.48;;;16.15;;
19002;SDS011;9634;51.040;13.794;2022-10-17T10:47:08;19.48;;;15.13;;
19002;SDS011;9634;51.040;13.794;2022-10-17T10:52:26;22.55;;;15.13;;
19002;SDS011;9634;51.040;13.794;2022-10-17T10:57:33;22.67;;;15.65;;
19002;SDS011;9634;51.040;13.794;2022-10-17T11:02:39;28.27;;;15.63;;
19002;SDS011;9634;51.040;13.794;2022-10-17T11:07:49;21.67;;;15.85;;
19002;SDS011;9634;51.040;13.794;2022-10-17T11:12:56;19.35;;;14.70;;
19002;SDS011;9634;51.040;13.794;2022-10-17T11:18:05;21.15;;;15.27;;
19002;SDS011;9634;51.040;13.794;2022-10-17T11:23:15;20.70;;;14.68;;
19002;SDS011;9634;51.040;13.794;2022-10-17T11:28:21;20.33;;;15.65;;
19002;SDS011;9634;51.040;13.794;2022-10-17T11:33:27;20.95;;;14.30;;
19002;SDS011;9634;51.040;13.794;2022-10-17T11:38:39;17.80;;;14.90;;
19002;SDS011;9634;51.040;13.794;2022-10-17T11:43:48;17.92;;;14.27;;
19002;SDS011;9634;51.040;13.794;2022-10-17T11:49:01;18.13;;;13.25;;
19002;SDS011;9634;51.040;13.794;2022-10-17T11:54:10;21.70;;;13.85;;
19002;SDS011;9634;51.040;13.794;2022-10-17T11:59:38;17.25;;;13.85;;
19002;SDS011;9634;51.040;13.794;2022-10-17T12:04:56;15.93;;;11.88;;
19002;SDS011;9634;51.040;13.794;2022-10-17T12:10:13;17.40;;;12.98;;
19002;SDS011;9634;51.040;13.794;2022-10-17T12:15:26;18.25;;;13.30;;
19002;SDS011;9634;51.040;13.794;2022-10-17T12:20:31;15.10;;;12.13;;
19002;SDS011;9634;51.040;13.794;2022-10-17T12:25:37;20.30;;;13.35;;
19002;SDS011;9634;51.040;13.794;2022-10-17T12:30:53;16.50;;;12.27;;
19002;SDS011;9634;51.040;13.794;2022-10-17T12:41:52;17.67;;;13.30;;
19002;SDS011;9634;51.040;13.794;2022-10-17T12:46:55;13.60;;;12.00;;
19002;SDS011;9634;51.040;13.794;2022-10-17T12:52:04;14.13;;;12.25;;
19002;SDS011;9634;51.040;13.794;2022-10-17T12:57:26;16.65;;;12.15;;
19002;SDS011;9634;51.040;13.794;2022-10-17T13:02:33;16.55;;;12.40;;
19002;SDS011;9634;51.040;13.794;2022-10-17T13:07:36;16.15;;;13.40;;
19002;SDS011;9634;51.040;13.794;2022-10-17T13:12:44;18.13;;;13.45;;
19002;SDS011;9634;51.040;13.794;2022-10-17T13:17:54;16.48;;;13.50;;
19002;SDS011;9634;51.040;13.794;2022-10-17T13:22:58;17.80;;;13.88;;
19002;SDS011;9634;51.040;13.794;2022-10-17T13:28:06;16.77;;;13.95;;
19002;SDS011;9634;51.040;13.794;2022-10-17T13:33:27;20.10;;;14.63;;
19002;SDS011;9634;51.040;13.794;2022-10-17T13:38:33;19.33;;;14.43;;
19002;SDS011;9634;51.040;13.794;2022-10-17T13:43:37;15.88;;;13.50;;
19002;SDS011;9634;51.040;13.794;2022-10-17T13:48:40;20.85;;;15.02;;
19002;SDS011;9634;51.040;13.794;2022-10-17T13:53:42;17.67;;;15.00;;
19002;SDS011;9634;51.040;13.794;2022-10-17T13:58:47;19.17;;;15.10;;
19002;SDS011;9634;51.040;13.794;2022-10-17T14:03:50;23.08;;;15.48;;
19002;SDS011;9634;51.040;13.794;2022-10-17T14:08:55;19.13;;;15.63;;
19002;SDS011;9634;51.040;13.794;2022-10-17T14:14:01;20.58;;;16.27;;
19002;SDS011;9634;51.040;13.794;2022-10-17T14:19:12;21.52;;;16.05;;
19002;SDS011;9634;51.040;13.794;2022-10-17T14:24:28;23.38;;;16.45;;
19002;SDS011;9634;51.040;13.794;2022-10-17T14:34:54;27.08;;;17.25;;
19002;SDS011;9634;51.040;13.794;2022-10-17T14:39:58;24.03;;;16.40;;
19002;SDS011;9634;51.040;13.794;2022-10-17T14:45:04;26.55;;;18.50;;
19002;SDS011;9634;51.040;13.794;2022-10-17T14:50:19;26.80;;;18.30;;
19002;SDS011;9634;51.040;13.794;2022-10-17T14:55:23;29.97;;;19.33;;
19002;SDS011;9634;51.040;13.794;2022-10-17T15:00:28;26.73;;;18.33;;
19002;SDS011;9634;51.040;13.794;2022-10-17T15:05:30;28.40;;;19.50;;
19002;SDS011;9634;51.040;13.794;2022-10-17T15:10:33;33.83;;;21.20;;
19002;SDS011;9634;51.040;13.794;2022-10-17T15:15:38;32.50;;;21.10;;
19002;SDS011;9634;51.040;13.794;2022-10-17T15:20:41;27.33;;;19.57;;
19002;SDS011;9634;51.040;13.794;2022-10-17T15:25:43;33.77;;;21.47;;
19002;SDS011;9634;51.040;13.794;2022-10-17T15:30:47;31.23;;;20.40;;
19002;SDS011;9634;51.040;13.794;2022-10-17T15:35:49;33.58;;;22.67;;
19002;SDS011;9634;51.040;13.794;2022-10-17T15:40:52;29.40;;;20.37;;
19002;SDS011;9634;51.040;13.794;2022-10-17T15:45:56;35.43;;;21.13;;
19002;SDS011;9634;51.040;13.794;2022-10-17T15:51:00;35.43;;;21.30;;
19002;SDS011;9634;51.040;13.794;2022-10-17T15:56:02;33.67;;;21.20;;
19002;SDS011;9634;51.040;13.794;2022-10-17T16:01:10;37.53;;;22.10;;
19002;SDS011;9634;51.040;13.794;2022-10-17T16:06:20;34.00;;;22.37;;
19002;SDS011;9634;51.040;13.794;2022-10-17T16:11:25;38.50;;;23.93;;
19002;SDS011;9634;51.040;13.794;2022-10-17T16:16:32;36.37;;;23.07;;
19002;SDS011;9634;51.040;13.794;2022-10-17T16:21:35;36.27;;;23.27;;
19002;SDS011;9634;51.040;13.794;2022-10-17T16:26:39;33.57;;;22.93;;
19002;SDS011;9634;51.040;13.794;2022-10-17T16:31:43;35.83;;;22.83;;
19002;SDS011;9634;51.040;13.794;2022-10-17T16:36:46;40.60;;;24.77;;
19002;SDS011;9634;51.040;13.794;2022-10-17T16:41:48;40.33;;;24.17;;
19002;SDS011;9634;51.040;13.794;2022-10-17T16:46:52;39.07;;;25.00;;
19002;SDS011;9634;51.040;13.794;2022-10-17T16:51:54;42.60;;;25.50;;
19002;SDS011;9634;51.040;13.794;2022-10-17T16:56:56;42.47;;;25.93;;
19002;SDS011;9634;51.040;13.794;2022-10-17T17:02:00;40.20;;;25.20;;
19002;SDS011;9634;51.040;13.794;2022-10-17T17:07:02;42.13;;;25.13;;
19002;SDS011;9634;51.040;13.794;2022-10-17T19:11:08;38.87;;;24.13;;
19002;SDS011;9634;51.040;13.794;2022-10-17T19:16:13;45.43;;;24.40;;
19002;SDS011;9634;51.040;13.794;2022-10-17T19:21:19;44.13;;;24.33;;
19002;SDS011;9634;51.040;13.794;2022-10-17T19:26:23;39.10;;;24.17;;
19002;SDS011;9634;51.040;13.794;2022-10-17T19:31:27;38.63;;;23.37;;
19002;SDS011;9634;51.040;13.794;2022-10-17T19:36:31;42.30;;;23.43;;
19002;SDS011;9634;51.040;13.794;2022-10-17T19:41:36;43.43;;;25.47;;
19002;SDS011;9634;51.040;13.794;2022-10-17T19:46:40;38.47;;;23.90;;
19002;SDS011;9634;51.040;13.794;2022-10-17T19:51:45;38.70;;;24.13;;
19002;SDS011;9634;51.040;13.794;2022-10-17T19:56:49;43.50;;;24.93;;
19002;SDS011;9634;51.040;13.794;2022-10-17T20:01:51;37.27;;;23.73;;
19002;SDS011;9634;51.040;13.794;2022-10-17T20:06:54;39.00;;;23.17;;
19002;SDS011;9634;51.040;13.794;2022-10-17T20:12:00;43.43;;;24.87;;
19002;SDS011;9634;51.040;13.794;2022-10-17T20:17:02;42.43;;;24.00;;
19002;SDS011;9634;51.040;13.794;2022-10-17T20:22:04;42.53;;;25.90;;
19002;SDS011;9634;51.040;13.794;2022-10-17T20:27:08;45.50;;;25.97;;
19002;SDS011;9634;51.040;13.794;2022-10-17T20:32:10;43.30;;;25.87;;
19002;SDS011;9634;51.040;13.794;2022-10-17T20:37:12;45.67;;;27.03;;
19002;SDS011;9634;51.040;13.794;2022-10-17T20:42:16;44.40;;;25.97;;
19002;SDS011;9634;51.040;13.794;2022-10-17T20:47:20;48.30;;;26.50;;
19002;SDS011;9634;51.040;13.794;2022-10-17T20:52:22;46.07;;;27.37;;
19002;SDS011;9634;51.040;13.794;2022-10-17T20:57:26;47.77;;;27.77;;
19002;SDS011;9634;51.040;13.794;2022-10-17T21:02:28;47.67;;;27.73;;
19002;SDS011;9634;51.040;13.794;2022-10-17T21:07:31;55.90;;;28.50;;
19002;SDS011;9634;51.040;13.794;2022-10-17T21:12:34;47.50;;;28.53;;
19002;SDS011;9634;51.040;13.794;2022-10-17T21:17:37;49.13;;;28.67;;
19002;SDS011;9634;51.040;13.794;2022-10-17T21:22:39;50.67;;;30.50;;
19002;SDS011;9634;51.040;13.794;2022-10-17T21:27:42;59.07;;;30.73;;
19002;SDS011;9634;51.040;13.794;2022-10-17T21:32:44;50.77;;;30.53;;
19002;SDS011;9634;51.040;13.794;2022-10-17T21:37:47;57.00;;;32.47;;
19002;SDS011;9634;51.040;13.794;2022-10-17T21:42:50;60.37;;;31.20;;
19002;SDS011;9634;51.040;13.794;2022-10-17T21:47:53;55.17;;;31.73;;
19002;SDS011;9634;51.040;13.794;2022-10-17T21:52:56;53.37;;;31.27;;
19002;SDS011;9634;51.040;13.794;2022-10-17T21:58:00;56.43;;;31.00;;
19002;SDS011;9634;51.040;13.794;2022-10-17T22:03:02;57.40;;;32.30;;
19002;SDS011;9634;51.040;13.794;2022-10-17T22:08:06;55.53;;;31.37;;
19002;SDS011;9634;51.040;13.794;2022-10-17T22:13:10;56.70;;;30.93;;
19002;SDS011;9634;51.040;13.794;2022-10-17T22:18:12;56.10;;;31.73;;
19002;SDS011;9634;51.040;13.794;2022-10-17T22:23:14;58.63;;;32.53;;
19002;SDS011;9634;51.040;13.794;2022-10-17T22:28:18;53.93;;;30.57;;
19002;SDS011;9634;51.040;13.794;2022-10-17T22:33:20;56.00;;;30.40;;
19002;SDS011;9634;51.040;13.794;2022-10-17T22:38:22;56.10;;;31.03;;
19002;SDS011;9634;51.040;13.794;2022-10-17T22:43:26;61.10;;;32.97;;
19002;SDS011;9634;51.040;13.794;2022-10-17T22:48:29;59.97;;;30.70;;
19002;SDS011;9634;51.040;13.794;2022-10-17T22:53:31;59.93;;;32.70;;
19002;SDS011;9634;51.040;13.794;2022-10-17T22:58:36;57.30;;;32.50;;
19002;SDS011;9634;51.040;13.794;2022-10-17T23:03:38;62.17;;;31.10;;
19002;SDS011;9634;51.040;13.794;2022-10-17T23:08:41;61.93;;;31.23;;
19002;SDS011;9634;51.040;13.794;2022-10-17T23:13:44;55.40;;;31.13;;
19002;SDS011;9634;51.040;13.794;2022-10-17T23:18:47;60.20;;;32.03;;
19002;SDS011;9634;51.040;13.794;2022-10-17T23:23:49;55.17;;;31.03;;
19002;SDS011;9634;51.040;13.794;2022-10-17T23:28:53;56.47;;;31.60;;
19002;SDS011;9634;51.040;13.794;2022-10-17T23:33:57;57.90;;;32.93;;
19002;SDS011;9634;51.040;13.794;2022-10-17T23:38:59;56.40;;;32.77;;
19002;SDS011;9634;51.040;13.794;2022-10-17T23:44:03;57.87;;;32.10;;
19002;SDS011;9634;51.040;13.794;2022-10-17T23:49:05;61.67;;;32.90;;
19002;SDS011;9634;51.040;13.794;2022-10-17T23:54:08;59.47;;;32.30;;
19002;SDS011;9634;51.040;13.794;2022-10-17T23:59:11;61.43;;;33.50;;
